createdAt,value
2022-12-22T05:00:29.188Z,0.00
2022-12-22T05:01:29.298Z,0.00
2022-12-22T05:02:29.252Z,0.00
2022-12-22T05:03:29.183Z,0.00
2022-12-22T05:04:29.113Z,0.00
2022-12-22T05:05:29.082Z,0.00
2022-12-22T05:06:29.063Z,0.00
2022-12-22T05:07:29.053Z,0.00
2022-12-22T05:08:29.042Z,0.00
2022-12-22T05:09:29.043Z,0.00
2022-12-22T05:10:29.020Z,0.00
2022-12-22T05:11:34.025Z,0.00
2022-12-22T05:12:28.998Z,0.00
2022-12-22T05:13:28.982Z,0.00
2022-12-22T05:14:28.986Z,0.00
2022-12-22T05:15:28.955Z,0.00
2022-12-22T05:16:29.041Z,0.00
2022-12-22T05:17:28.944Z,0.00
2022-12-22T05:18:28.927Z,0.00
2022-12-22T05:19:30.845Z,0.00
2022-12-22T05:20:28.908Z,0.00
2022-12-22T05:21:28.891Z,0.00
2022-12-22T05:22:33.918Z,0.00
2022-12-22T05:23:28.877Z,0.00
2022-12-22T05:24:28.871Z,0.00
2022-12-22T05:25:34.659Z,0.00
2022-12-22T05:26:29.859Z,0.00
2022-12-22T05:27:28.829Z,0.00
2022-12-22T05:28:28.819Z,0.00
2022-12-22T05:29:28.837Z,0.00
2022-12-22T05:30:28.873Z,0.00
2022-12-22T05:31:28.931Z,0.00
2022-12-22T05:32:28.787Z,0.00
2022-12-22T05:33:33.786Z,0.00
2022-12-22T05:34:28.740Z,0.00
2022-12-22T05:35:28.750Z,0.00
2022-12-22T05:36:28.722Z,0.00
2022-12-22T05:37:28.719Z,0.00
2022-12-22T05:38:28.704Z,0.00
2022-12-22T05:39:28.716Z,0.00
2022-12-22T05:40:28.729Z,0.00
2022-12-22T05:41:28.675Z,0.00
2022-12-22T05:42:28.666Z,0.00
2022-12-22T05:43:28.645Z,0.00
2022-12-22T05:44:33.656Z,0.00
2022-12-22T05:45:28.631Z,0.00
2022-12-22T05:46:28.688Z,0.00
2022-12-22T05:47:28.604Z,0.00
2022-12-22T05:48:35.399Z,0.00
2022-12-22T05:49:29.574Z,0.00
2022-12-22T05:50:29.570Z,0.00
2022-12-22T05:51:28.552Z,0.00
2022-12-22T05:52:28.550Z,0.00
2022-12-22T05:53:28.542Z,0.00
2022-12-22T05:54:28.520Z,0.00
2022-12-22T05:55:33.548Z,0.00
2022-12-22T05:56:29.497Z,0.00
2022-12-22T05:57:28.483Z,0.00
2022-12-22T05:58:28.476Z,0.00
2022-12-22T05:59:28.468Z,0.00
2022-12-22T06:00:28.479Z,0.00
2022-12-22T06:01:28.468Z,0.00
2022-12-22T06:02:28.625Z,0.00
2022-12-22T06:03:28.644Z,0.00
2022-12-22T06:04:28.549Z,0.00
2022-12-22T06:05:28.405Z,0.00
2022-12-22T06:06:33.402Z,0.00
2022-12-22T06:07:28.386Z,0.00
2022-12-22T06:08:28.361Z,0.00
2022-12-22T06:09:28.362Z,0.00
2022-12-22T06:10:28.341Z,0.00
2022-12-22T06:11:28.324Z,0.00
2022-12-22T06:12:28.321Z,0.00
2022-12-22T06:13:28.311Z,0.00
2022-12-22T06:14:28.288Z,0.00
2022-12-22T06:15:28.294Z,0.00
2022-12-22T06:16:28.339Z,0.00
2022-12-22T06:17:34.913Z,0.00
2022-12-22T06:18:28.302Z,0.00
2022-12-22T06:19:28.232Z,0.00
2022-12-22T06:20:28.250Z,0.00
2022-12-22T06:21:28.220Z,0.00
2022-12-22T06:22:28.198Z,0.00
2022-12-22T06:23:28.195Z,0.00
2022-12-22T06:24:28.180Z,0.00
2022-12-22T06:25:28.192Z,0.00
2022-12-22T06:26:28.166Z,0.00
2022-12-22T06:27:28.152Z,0.00
2022-12-22T06:28:33.171Z,0.00
2022-12-22T06:29:28.139Z,0.00
2022-12-22T06:30:33.194Z,0.00
2022-12-22T06:31:29.210Z,0.00
2022-12-22T06:32:28.107Z,0.00
2022-12-22T06:33:28.070Z,0.00
2022-12-22T06:34:28.063Z,0.00
2022-12-22T06:35:28.074Z,0.00
2022-12-22T06:36:28.260Z,0.00
2022-12-22T06:37:28.046Z,0.00
2022-12-22T06:38:28.112Z,0.00
2022-12-22T06:39:33.046Z,0.00
2022-12-22T06:40:27.997Z,0.00
2022-12-22T06:41:28.027Z,0.00
2022-12-22T06:42:27.971Z,0.00
2022-12-22T06:43:27.988Z,0.00
2022-12-22T06:44:27.945Z,0.00
2022-12-22T06:45:27.935Z,0.00
2022-12-22T06:46:28.011Z,0.00
2022-12-22T06:47:27.916Z,0.00
2022-12-22T06:48:27.901Z,0.00
2022-12-22T06:49:27.908Z,0.00
2022-12-22T06:50:32.899Z,0.00
2022-12-22T06:51:27.895Z,0.00
2022-12-22T06:52:27.904Z,0.00
2022-12-22T06:53:27.845Z,0.00
2022-12-22T06:54:27.846Z,0.00
2022-12-22T06:55:27.848Z,0.00
2022-12-22T06:56:27.821Z,0.00
2022-12-22T06:57:28.844Z,0.00
2022-12-22T06:58:27.790Z,0.00
2022-12-22T06:59:27.803Z,0.00
2022-12-22T07:00:27.803Z,0.00
2022-12-22T07:01:32.949Z,0.00
2022-12-22T07:02:27.973Z,0.00
2022-12-22T07:03:27.949Z,0.00
2022-12-22T07:04:27.722Z,0.00
2022-12-22T07:05:27.746Z,0.00
2022-12-22T07:06:27.710Z,0.00
2022-12-22T07:07:27.689Z,0.00
2022-12-22T07:08:27.701Z,0.00
2022-12-22T07:09:27.747Z,0.00
2022-12-22T07:10:27.735Z,0.00
2022-12-22T07:11:27.662Z,0.00
2022-12-22T07:12:32.652Z,0.00
2022-12-22T07:13:27.616Z,0.00
2022-12-22T07:14:27.616Z,0.00
2022-12-22T07:15:27.609Z,0.00
2022-12-22T07:16:27.652Z,0.00
2022-12-22T07:17:27.584Z,0.00
2022-12-22T07:18:27.638Z,0.00
2022-12-22T07:19:27.654Z,0.00
2022-12-22T07:20:27.548Z,0.00
2022-12-22T07:21:27.670Z,0.00
2022-12-22T07:22:30.466Z,0.00
2022-12-22T07:23:32.553Z,0.00
2022-12-22T07:24:27.507Z,0.00
2022-12-22T07:25:27.485Z,0.00
2022-12-22T07:26:27.855Z,0.00
2022-12-22T07:27:27.465Z,5.62
2022-12-22T07:28:27.457Z,5.62
2022-12-22T07:29:27.434Z,5.62
2022-12-22T07:30:27.491Z,5.62
2022-12-22T07:31:27.538Z,5.62
2022-12-22T07:32:27.451Z,5.62
2022-12-22T07:33:27.405Z,5.62
2022-12-22T07:34:32.407Z,5.62
2022-12-22T07:35:27.367Z,5.62
2022-12-22T07:36:28.368Z,11.25
2022-12-22T07:37:27.343Z,5.62
2022-12-22T07:38:27.344Z,5.62
2022-12-22T07:39:27.385Z,5.62
2022-12-22T07:40:28.171Z,5.62
2022-12-22T07:41:27.346Z,5.62
2022-12-22T07:42:27.285Z,5.62
2022-12-22T07:43:27.294Z,5.62
2022-12-22T07:44:27.265Z,5.62
2022-12-22T07:45:32.283Z,11.25
2022-12-22T07:46:27.558Z,11.25
2022-12-22T07:47:34.839Z,11.25
2022-12-22T07:48:28.227Z,11.25
2022-12-22T07:49:27.210Z,16.88
2022-12-22T07:50:27.283Z,16.88
2022-12-22T07:51:27.195Z,16.88
2022-12-22T07:52:27.186Z,11.25
2022-12-22T07:53:27.168Z,11.25
2022-12-22T07:54:27.163Z,11.25
2022-12-22T07:55:27.162Z,11.25
2022-12-22T07:56:32.165Z,11.25
2022-12-22T07:57:27.134Z,16.88
2022-12-22T07:58:27.105Z,16.88
2022-12-22T07:59:27.107Z,16.88
2022-12-22T08:00:27.082Z,16.88
2022-12-22T08:01:27.248Z,16.88
2022-12-22T08:02:27.144Z,16.88
2022-12-22T08:03:27.143Z,16.88
2022-12-22T08:04:27.108Z,16.88
2022-12-22T08:05:27.045Z,22.50
2022-12-22T08:06:27.031Z,28.12
2022-12-22T08:07:32.031Z,33.75
2022-12-22T08:08:26.987Z,28.12
2022-12-22T08:09:26.973Z,28.12
2022-12-22T08:10:26.980Z,22.50
2022-12-22T08:11:26.999Z,28.12
2022-12-22T08:12:27.037Z,28.12
2022-12-22T08:13:26.981Z,39.38
2022-12-22T08:14:26.921Z,33.75
2022-12-22T08:15:26.917Z,33.75
2022-12-22T08:16:26.975Z,28.12
2022-12-22T08:17:26.898Z,39.38
2022-12-22T08:18:31.920Z,33.75
2022-12-22T08:19:26.879Z,33.75
2022-12-22T08:20:26.943Z,45.00
2022-12-22T08:21:26.888Z,45.00
2022-12-22T08:22:26.847Z,45.00
2022-12-22T08:23:26.820Z,50.62
2022-12-22T08:24:26.822Z,50.62
2022-12-22T08:25:26.805Z,45.00
2022-12-22T08:26:27.794Z,39.38
2022-12-22T08:27:26.832Z,33.75
2022-12-22T08:28:26.776Z,39.38
2022-12-22T08:29:31.853Z,39.38
2022-12-22T08:30:26.740Z,56.25
2022-12-22T08:31:26.772Z,73.12
2022-12-22T08:32:27.726Z,67.50
2022-12-22T08:33:26.703Z,78.75
2022-12-22T08:34:26.742Z,73.12
2022-12-22T08:35:26.683Z,67.50
2022-12-22T08:36:26.705Z,78.75
2022-12-22T08:37:26.669Z,90.00
2022-12-22T08:38:26.652Z,106.88
2022-12-22T08:39:26.659Z,67.50
2022-12-22T08:40:31.714Z,95.62
2022-12-22T08:41:26.618Z,95.62
2022-12-22T08:42:26.649Z,90.00
2022-12-22T08:43:27.630Z,90.00
2022-12-22T08:44:26.581Z,101.25
2022-12-22T08:45:26.577Z,95.62
2022-12-22T08:46:26.631Z,84.38
2022-12-22T08:47:26.634Z,84.38
2022-12-22T08:48:26.556Z,73.12
2022-12-22T08:49:26.544Z,73.12
2022-12-22T08:50:26.515Z,61.88
2022-12-22T08:51:31.524Z,50.62
2022-12-22T08:52:27.507Z,50.62
2022-12-22T08:54:02.592Z,56.25
2022-12-22T08:54:27.472Z,56.25
2022-12-22T08:55:26.463Z,50.62
2022-12-22T08:56:26.470Z,50.62
2022-12-22T08:57:26.474Z,45.00
2022-12-22T08:58:26.447Z,45.00
2022-12-22T08:59:26.440Z,50.62
2022-12-22T09:00:26.403Z,73.12
2022-12-22T09:01:26.570Z,84.38
2022-12-22T09:02:31.491Z,78.75
2022-12-22T09:03:26.488Z,90.00
2022-12-22T09:04:26.360Z,90.00
2022-12-22T09:05:26.380Z,95.62
2022-12-22T09:06:27.621Z,118.12
2022-12-22T09:07:26.343Z,118.12
2022-12-22T09:08:26.320Z,101.25
2022-12-22T09:09:26.297Z,106.88
2022-12-22T09:10:26.303Z,112.50
2022-12-22T09:11:26.276Z,84.38
2022-12-22T09:12:26.299Z,73.12
2022-12-22T09:13:31.269Z,73.12
2022-12-22T09:14:26.240Z,78.75
2022-12-22T09:15:26.258Z,67.50
2022-12-22T09:16:26.292Z,67.50
2022-12-22T09:17:26.241Z,67.50
2022-12-22T09:18:26.228Z,56.25
2022-12-22T09:19:26.180Z,56.25
2022-12-22T09:20:26.173Z,61.88
2022-12-22T09:21:26.191Z,56.25
2022-12-22T09:22:28.567Z,56.25
2022-12-22T09:23:26.163Z,61.88
2022-12-22T09:24:31.210Z,73.12
2022-12-22T09:25:26.114Z,90.00
2022-12-22T09:26:26.118Z,61.88
2022-12-22T09:27:26.120Z,67.50
2022-12-22T09:28:26.090Z,67.50
2022-12-22T09:29:26.072Z,50.62
2022-12-22T09:30:26.080Z,50.62
2022-12-22T09:31:26.135Z,61.88
2022-12-22T09:32:26.035Z,56.25
2022-12-22T09:33:26.033Z,56.25
2022-12-22T09:34:26.022Z,56.25
2022-12-22T09:35:31.044Z,45.00
2022-12-22T09:36:26.000Z,61.88
2022-12-22T09:37:26.038Z,67.50
2022-12-22T09:38:25.987Z,67.50
2022-12-22T09:39:29.294Z,73.12
2022-12-22T09:40:25.970Z,50.62
2022-12-22T09:41:25.957Z,33.75
2022-12-22T09:42:25.940Z,39.38
2022-12-22T09:43:25.933Z,33.75
2022-12-22T09:44:25.910Z,28.12
2022-12-22T09:45:25.886Z,28.12
2022-12-22T09:46:31.058Z,28.12
2022-12-22T09:47:25.866Z,28.12
2022-12-22T09:48:25.867Z,28.12
2022-12-22T09:49:25.840Z,33.75
2022-12-22T09:50:25.835Z,33.75
2022-12-22T09:51:27.447Z,33.75
2022-12-22T09:52:25.840Z,33.75
2022-12-22T09:53:25.807Z,33.75
2022-12-22T09:54:25.792Z,28.12
2022-12-22T09:55:25.779Z,28.12
2022-12-22T09:56:25.777Z,28.12
2022-12-22T09:57:30.777Z,28.12
2022-12-22T09:58:26.646Z,28.12
2022-12-22T09:59:25.738Z,28.12
2022-12-22T10:00:26.720Z,22.50
2022-12-22T10:01:25.889Z,16.88
2022-12-22T10:02:25.799Z,22.50
2022-12-22T10:03:25.789Z,22.50
2022-12-22T10:04:25.710Z,22.50
2022-12-22T10:05:25.660Z,22.50
2022-12-22T10:06:26.647Z,28.12
2022-12-22T10:07:25.653Z,28.12
2022-12-22T10:08:30.815Z,28.12
2022-12-22T10:09:52.099Z,33.75
2022-12-22T10:10:26.602Z,28.12
2022-12-22T10:11:25.591Z,33.75
2022-12-22T10:12:25.602Z,28.12
2022-12-22T10:13:25.593Z,28.12
2022-12-22T10:14:25.557Z,33.75
2022-12-22T10:15:25.589Z,28.12
2022-12-22T10:16:25.598Z,28.12
2022-12-22T10:17:25.541Z,28.12
2022-12-22T10:18:25.546Z,33.75
2022-12-22T10:19:30.527Z,39.38
2022-12-22T10:20:25.630Z,33.75
2022-12-22T10:21:25.482Z,39.38
2022-12-22T10:22:25.473Z,39.38
2022-12-22T10:23:25.469Z,33.75
2022-12-22T10:24:25.458Z,28.12
2022-12-22T10:25:25.438Z,33.75
2022-12-22T10:26:28.460Z,33.75
2022-12-22T10:27:28.987Z,45.00
2022-12-22T10:28:25.485Z,39.38
2022-12-22T10:29:25.392Z,33.75
2022-12-22T10:30:30.402Z,39.38
2022-12-22T10:31:25.419Z,45.00
2022-12-22T10:32:25.432Z,50.62
2022-12-22T10:33:25.340Z,45.00
2022-12-22T10:34:25.361Z,33.75
2022-12-22T10:35:25.343Z,39.38
2022-12-22T10:36:25.336Z,33.75
2022-12-22T10:37:25.319Z,33.75
2022-12-22T10:38:25.293Z,33.75
2022-12-22T10:39:25.282Z,33.75
2022-12-22T10:40:25.276Z,39.38
2022-12-22T10:41:30.291Z,50.62
2022-12-22T10:42:25.246Z,50.62
2022-12-22T10:43:25.225Z,61.88
2022-12-22T10:44:25.290Z,50.62
2022-12-22T10:45:25.221Z,45.00
2022-12-22T10:46:25.285Z,50.62
2022-12-22T10:47:25.181Z,45.00
2022-12-22T10:48:25.187Z,45.00
2022-12-22T10:49:25.208Z,39.38
2022-12-22T10:50:25.187Z,50.62
2022-12-22T10:51:25.162Z,50.62
2022-12-22T10:52:32.317Z,56.25
2022-12-22T10:53:25.123Z,50.62
2022-12-22T10:54:25.125Z,78.75
2022-12-22T10:55:25.094Z,78.75
2022-12-22T10:56:25.080Z,78.75
2022-12-22T10:57:26.083Z,95.62
2022-12-22T10:58:25.064Z,101.25
2022-12-22T10:59:25.056Z,101.25
2022-12-22T11:00:25.061Z,84.38
2022-12-22T11:01:25.255Z,78.75
2022-12-22T11:02:25.223Z,78.75
2022-12-22T11:03:30.325Z,61.88
2022-12-22T11:04:25.037Z,73.12
2022-12-22T11:05:24.989Z,67.50
2022-12-22T11:06:25.050Z,78.75
2022-12-22T11:07:24.967Z,101.25
2022-12-22T11:08:24.949Z,101.25
2022-12-22T11:09:33.807Z,84.38
2022-12-22T11:10:25.921Z,61.88
2022-12-22T11:11:24.913Z,45.00
2022-12-22T11:12:24.902Z,45.00
2022-12-22T11:13:24.887Z,45.00
2022-12-22T11:14:29.934Z,39.38
2022-12-22T11:15:25.182Z,39.38
2022-12-22T11:16:24.921Z,67.50
2022-12-22T11:17:24.841Z,45.00
2022-12-22T11:18:24.836Z,45.00
2022-12-22T11:19:24.827Z,50.62
2022-12-22T11:20:24.822Z,45.00
2022-12-22T11:21:24.876Z,45.00
2022-12-22T11:22:24.825Z,45.00
2022-12-22T11:23:24.790Z,50.62
2022-12-22T11:24:24.761Z,50.62
2022-12-22T11:25:29.781Z,39.38
2022-12-22T11:26:24.739Z,33.75
2022-12-22T11:27:24.740Z,39.38
2022-12-22T11:28:24.730Z,39.38
2022-12-22T11:29:24.714Z,33.75
2022-12-22T11:30:24.729Z,33.75
2022-12-22T11:31:24.768Z,28.12
2022-12-22T11:32:24.681Z,28.12
2022-12-22T11:33:24.661Z,22.50
2022-12-22T11:34:24.662Z,22.50
2022-12-22T11:35:24.650Z,22.50
2022-12-22T11:36:29.804Z,22.50
2022-12-22T11:37:24.626Z,28.12
2022-12-22T11:38:24.624Z,22.50
2022-12-22T11:39:24.609Z,22.50
2022-12-22T11:40:24.594Z,22.50
2022-12-22T11:41:24.584Z,28.12
2022-12-22T11:42:24.563Z,22.50
2022-12-22T11:43:24.549Z,28.12
2022-12-22T11:44:24.539Z,22.50
2022-12-22T11:45:24.528Z,22.50
2022-12-22T11:46:24.618Z,22.50
2022-12-22T11:47:29.528Z,16.88
2022-12-22T11:48:24.501Z,16.88
2022-12-22T11:49:24.484Z,11.25
2022-12-22T11:51:01.162Z,11.25
2022-12-22T11:51:27.463Z,11.25
2022-12-22T11:52:24.449Z,16.88
2022-12-22T11:53:24.431Z,11.25
2022-12-22T11:54:24.462Z,16.88
2022-12-22T11:55:24.466Z,22.50
2022-12-22T11:56:24.429Z,16.88
2022-12-22T11:57:24.481Z,16.88
2022-12-22T11:58:29.405Z,11.25
2022-12-22T11:59:24.372Z,11.25
2022-12-22T12:00:32.717Z,11.25
2022-12-22T12:01:26.376Z,11.25
2022-12-22T12:02:24.567Z,16.88
2022-12-22T12:03:24.574Z,11.25
2022-12-22T12:04:24.369Z,11.25
2022-12-22T12:05:24.324Z,11.25
2022-12-22T12:06:24.328Z,16.88
2022-12-22T12:07:26.197Z,16.88
2022-12-22T12:08:24.284Z,16.88
2022-12-22T12:09:29.309Z,16.88
2022-12-22T12:10:24.249Z,16.88
2022-12-22T12:11:24.397Z,16.88
2022-12-22T12:12:24.223Z,16.88
2022-12-22T12:13:30.088Z,16.88
2022-12-22T12:14:25.259Z,16.88
2022-12-22T12:15:24.186Z,16.88
2022-12-22T12:16:24.316Z,16.88
2022-12-22T12:17:24.162Z,22.50
2022-12-22T12:18:24.151Z,22.50
2022-12-22T12:19:27.160Z,22.50
2022-12-22T12:20:29.153Z,28.12
2022-12-22T12:21:24.125Z,22.50
2022-12-22T12:22:24.117Z,16.88
2022-12-22T12:23:24.098Z,22.50
2022-12-22T12:24:24.088Z,22.50
2022-12-22T12:25:26.232Z,22.50
2022-12-22T12:26:24.079Z,22.50
2022-12-22T12:27:24.071Z,22.50
2022-12-22T12:28:24.044Z,33.75
2022-12-22T12:29:24.057Z,33.75
2022-12-22T12:30:39.890Z,39.38
2022-12-22T12:31:30.141Z,33.75
2022-12-22T12:32:24.017Z,33.75
2022-12-22T12:33:24.001Z,39.38
2022-12-22T12:34:24.131Z,39.38
2022-12-22T12:35:23.974Z,39.38
2022-12-22T12:36:23.955Z,33.75
2022-12-22T12:37:26.735Z,39.38
2022-12-22T12:38:56.875Z,39.38
2022-12-22T12:39:24.920Z,39.38
2022-12-22T12:40:23.897Z,33.75
2022-12-22T12:41:23.918Z,33.75
2022-12-22T12:42:28.945Z,33.75
2022-12-22T12:43:23.867Z,33.75
2022-12-22T12:44:23.858Z,33.75
2022-12-22T12:45:23.853Z,33.75
2022-12-22T12:46:23.921Z,33.75
2022-12-22T12:47:23.841Z,28.12
2022-12-22T12:48:23.835Z,28.12
2022-12-22T12:49:26.527Z,28.12
2022-12-22T12:50:23.798Z,28.12
2022-12-22T12:51:23.781Z,28.12
2022-12-22T12:52:23.770Z,33.75
2022-12-22T12:53:28.795Z,33.75
2022-12-22T12:54:23.786Z,33.75
2022-12-22T12:55:29.747Z,33.75
2022-12-22T12:56:24.718Z,33.75
2022-12-22T12:57:23.732Z,33.75
2022-12-22T12:58:23.937Z,39.38
2022-12-22T12:59:23.741Z,39.38
2022-12-22T13:00:23.674Z,39.38
2022-12-22T13:01:23.719Z,39.38
2022-12-22T13:02:23.938Z,45.00
2022-12-22T13:03:52.965Z,45.00
2022-12-22T13:04:29.777Z,39.38
2022-12-22T13:05:23.623Z,39.38
2022-12-22T13:06:23.603Z,45.00
2022-12-22T13:07:23.597Z,50.62
2022-12-22T13:08:23.602Z,56.25
2022-12-22T13:10:24.568Z,67.50
2022-12-22T13:11:52.617Z,67.50
2022-12-22T13:12:24.973Z,84.38
2022-12-22T13:13:23.576Z,78.75
2022-12-22T13:14:23.615Z,78.75
2022-12-22T13:15:28.527Z,84.38
2022-12-22T13:16:23.659Z,95.62
2022-12-22T13:17:23.560Z,95.62
2022-12-22T13:18:23.484Z,95.62
2022-12-22T13:19:23.483Z,106.88
2022-12-22T13:20:23.448Z,101.25
2022-12-22T13:21:54.376Z,101.25
2022-12-22T13:22:24.432Z,95.62
2022-12-22T13:23:23.439Z,90.00
2022-12-22T13:24:25.912Z,90.00
2022-12-22T13:25:23.398Z,90.00
2022-12-22T13:26:28.677Z,95.62
2022-12-22T13:27:23.377Z,106.88
2022-12-22T13:28:23.377Z,106.88
2022-12-22T13:29:23.390Z,112.50
2022-12-22T13:30:23.337Z,129.38
2022-12-22T13:31:23.394Z,129.38
2022-12-22T13:32:23.364Z,135.00
2022-12-22T13:33:23.303Z,140.62
2022-12-22T13:34:23.311Z,146.25
2022-12-22T13:35:33.835Z,174.38
2022-12-22T13:36:24.265Z,168.75
2022-12-22T13:37:28.288Z,163.12
2022-12-22T13:38:23.243Z,157.50
2022-12-22T13:39:23.246Z,151.88
2022-12-22T13:40:23.236Z,163.12
2022-12-22T13:41:27.448Z,163.12
2022-12-22T13:42:23.253Z,151.88
2022-12-22T13:43:23.238Z,135.00
2022-12-22T13:44:23.185Z,123.75
2022-12-22T13:45:23.187Z,123.75
2022-12-22T13:46:23.244Z,118.12
2022-12-22T13:47:24.143Z,112.50
2022-12-22T13:48:28.157Z,101.25
2022-12-22T13:49:51.572Z,90.00
2022-12-22T13:50:24.115Z,90.00
2022-12-22T13:51:23.101Z,73.12
2022-12-22T13:52:23.083Z,67.50
2022-12-22T13:53:49.940Z,67.50
2022-12-22T13:54:24.123Z,61.88
2022-12-22T13:55:23.059Z,67.50
2022-12-22T13:56:23.048Z,73.12
2022-12-22T13:57:23.054Z,67.50
2022-12-22T13:58:23.025Z,61.88
2022-12-22T13:59:28.066Z,56.25
2022-12-22T14:00:22.998Z,56.25
2022-12-22T14:01:23.071Z,50.62
2022-12-22T14:02:23.203Z,45.00
2022-12-22T14:03:57.696Z,39.38
2022-12-22T14:04:24.026Z,39.38
2022-12-22T14:05:22.997Z,33.75
2022-12-22T14:06:22.928Z,33.75
2022-12-22T14:07:22.924Z,33.75
2022-12-22T14:08:22.913Z,28.12
2022-12-22T14:09:22.917Z,22.50
2022-12-22T14:10:27.921Z,22.50
2022-12-22T14:11:22.865Z,16.88
2022-12-22T14:12:22.912Z,22.50
2022-12-22T14:13:22.848Z,16.88
2022-12-22T14:14:22.830Z,16.88
2022-12-22T14:15:22.865Z,16.88
2022-12-22T14:16:22.869Z,11.25
2022-12-22T14:17:22.851Z,11.25
2022-12-22T14:18:22.790Z,11.25
2022-12-22T14:19:22.820Z,11.25
2022-12-22T14:20:22.798Z,11.25
2022-12-22T14:21:27.836Z,11.25
2022-12-22T14:22:22.746Z,11.25
2022-12-22T14:23:22.774Z,11.25
2022-12-22T14:24:22.720Z,11.25
2022-12-22T14:25:22.733Z,11.25
2022-12-22T14:26:22.712Z,11.25
2022-12-22T14:27:22.778Z,5.62
2022-12-22T14:28:22.670Z,5.62
2022-12-22T14:29:22.666Z,11.25
2022-12-22T14:30:22.660Z,11.25
2022-12-22T14:31:22.737Z,11.25
2022-12-22T14:32:28.694Z,16.88
2022-12-22T14:33:22.667Z,11.25
2022-12-22T14:34:22.614Z,11.25
2022-12-22T14:35:23.635Z,5.62
2022-12-22T14:36:22.603Z,5.62
2022-12-22T14:37:27.057Z,11.25
2022-12-22T14:38:23.642Z,11.25
2022-12-22T14:39:22.609Z,5.62
2022-12-22T14:40:22.541Z,5.62
2022-12-22T14:41:22.551Z,11.25
2022-12-22T14:42:22.532Z,11.25
2022-12-22T14:43:27.563Z,5.62
2022-12-22T14:44:22.535Z,5.62
2022-12-22T14:45:22.482Z,5.62
2022-12-22T14:46:22.571Z,5.62
2022-12-22T14:47:22.470Z,5.62
2022-12-22T14:48:22.471Z,5.62
2022-12-22T14:49:22.434Z,5.62
2022-12-22T14:50:22.420Z,5.62
2022-12-22T14:51:22.424Z,5.62
2022-12-22T14:52:22.397Z,11.25
2022-12-22T14:53:22.407Z,11.25
2022-12-22T14:54:27.403Z,5.62
2022-12-22T14:55:22.380Z,5.62
2022-12-22T14:56:22.369Z,5.62
2022-12-22T14:57:22.360Z,11.25
2022-12-22T14:58:22.336Z,11.25
2022-12-22T14:59:22.343Z,11.25
2022-12-22T15:00:22.308Z,11.25
2022-12-22T15:01:22.491Z,11.25
2022-12-22T15:02:22.531Z,5.62
2022-12-22T15:03:22.403Z,5.62
2022-12-22T15:04:23.301Z,5.62
2022-12-22T15:05:27.287Z,5.62
2022-12-22T15:06:22.289Z,5.62
2022-12-22T15:08:03.561Z,5.62
2022-12-22T15:08:23.219Z,5.62
2022-12-22T15:09:47.112Z,5.62
2022-12-22T15:10:23.194Z,11.25
2022-12-22T15:11:22.350Z,5.62
2022-12-22T15:12:23.181Z,11.25
2022-12-22T15:13:22.163Z,11.25
2022-12-22T15:14:22.209Z,11.25
2022-12-22T15:15:22.200Z,5.62
2022-12-22T15:16:28.012Z,5.62
2022-12-22T15:17:22.117Z,5.62
2022-12-22T15:18:22.106Z,5.62
2022-12-22T15:19:22.121Z,5.62
2022-12-22T15:20:22.202Z,5.62
2022-12-22T15:21:22.088Z,5.62
2022-12-22T15:22:22.069Z,0.00
2022-12-22T15:23:22.055Z,0.00
2022-12-22T15:24:22.060Z,0.00
2022-12-22T15:25:22.034Z,0.00
2022-12-22T15:26:22.042Z,0.00
2022-12-22T15:27:27.028Z,0.00
2022-12-22T15:28:22.001Z,0.00
2022-12-22T15:29:22.000Z,0.00
2022-12-22T15:30:21.971Z,0.00
2022-12-22T15:31:22.014Z,0.00
2022-12-22T15:32:21.951Z,0.00
2022-12-22T15:33:21.942Z,0.00
2022-12-22T15:34:21.949Z,0.00
2022-12-22T15:35:21.918Z,0.00
2022-12-22T15:36:21.941Z,0.00
2022-12-22T15:37:21.889Z,0.00
2022-12-22T15:38:26.906Z,0.00
2022-12-22T15:39:21.869Z,0.00
2022-12-22T15:40:21.891Z,0.00
2022-12-22T15:41:21.859Z,0.00
2022-12-22T15:42:21.911Z,0.00
2022-12-22T15:43:55.839Z,0.00
2022-12-22T15:44:22.828Z,0.00
2022-12-22T15:45:21.811Z,0.00
2022-12-22T15:46:21.906Z,0.00
2022-12-22T15:47:21.774Z,0.00
2022-12-22T15:48:21.764Z,0.00
2022-12-22T15:49:26.807Z,0.00
2022-12-22T15:50:21.746Z,0.00
2022-12-22T15:51:21.744Z,0.00
2022-12-22T15:52:21.889Z,0.00
2022-12-22T15:53:21.715Z,0.00
2022-12-22T15:54:21.696Z,0.00
2022-12-22T15:55:21.691Z,0.00
2022-12-22T15:56:21.701Z,0.00
2022-12-22T15:57:21.672Z,0.00
2022-12-22T15:58:21.657Z,0.00
2022-12-22T15:59:21.639Z,0.00
2022-12-22T16:00:26.664Z,0.00
2022-12-22T16:01:21.741Z,0.00
2022-12-22T16:02:21.848Z,0.00
2022-12-22T16:03:21.847Z,0.00
2022-12-22T16:04:21.588Z,0.00
2022-12-22T16:05:21.581Z,0.00
2022-12-22T16:06:21.588Z,0.00
2022-12-22T16:07:21.631Z,0.00
2022-12-22T16:08:21.594Z,0.00
2022-12-22T16:09:21.530Z,0.00
2022-12-22T16:10:21.517Z,0.00
2022-12-22T16:11:26.538Z,0.00
2022-12-22T16:12:21.516Z,0.00
2022-12-22T16:13:21.492Z,0.00
2022-12-22T16:14:21.494Z,0.00
2022-12-22T16:15:21.474Z,0.00
2022-12-22T16:16:21.642Z,0.00
2022-12-22T16:17:21.467Z,0.00
2022-12-22T16:18:21.460Z,0.00
2022-12-22T16:19:21.421Z,0.00
2022-12-22T16:20:21.434Z,0.00
2022-12-22T16:21:21.520Z,0.00
2022-12-22T16:22:26.406Z,0.00
2022-12-22T16:23:21.911Z,0.00
2022-12-22T16:24:21.399Z,0.00
2022-12-22T16:25:21.391Z,0.00
2022-12-22T16:26:21.368Z,0.00
2022-12-22T16:27:21.342Z,0.00
2022-12-22T16:28:21.316Z,0.00
2022-12-22T16:29:21.321Z,0.00
2022-12-22T16:30:21.293Z,0.00
2022-12-22T16:31:21.471Z,0.00
2022-12-22T16:32:21.354Z,0.00
2022-12-22T16:33:26.283Z,0.00
2022-12-22T16:34:21.268Z,0.00
2022-12-22T16:35:21.277Z,0.00
2022-12-22T16:36:21.273Z,0.00
2022-12-22T16:37:21.258Z,0.00
2022-12-22T16:38:21.218Z,0.00
2022-12-22T16:39:21.185Z,0.00
2022-12-22T16:40:21.217Z,0.00
2022-12-22T16:41:21.169Z,0.00
2022-12-22T16:43:51.034Z,0.00
2022-12-22T16:44:50.985Z,0.00
2022-12-22T16:45:29.963Z,0.00
2022-12-22T16:46:30.045Z,0.00
2022-12-22T16:47:29.966Z,0.00
2022-12-22T16:48:29.931Z,0.00
2022-12-22T16:49:29.947Z,0.00
2022-12-22T16:50:29.955Z,0.00
2022-12-22T16:51:29.903Z,0.00
2022-12-22T16:52:29.904Z,0.00
2022-12-22T16:53:29.874Z,0.00
2022-12-22T16:54:34.893Z,0.00
2022-12-22T16:55:29.886Z,0.00
2022-12-22T16:56:29.895Z,0.00
2022-12-22T16:57:29.851Z,0.00
2022-12-22T16:58:29.826Z,0.00
2022-12-22T16:59:29.861Z,0.00
2022-12-22T17:00:29.815Z,0.00
2022-12-22T17:01:30.023Z,0.00
2022-12-22T17:02:29.990Z,0.00
2022-12-22T17:03:30.987Z,0.00
2022-12-22T17:04:29.766Z,0.00
2022-12-22T17:05:40.298Z,0.00
2022-12-22T17:06:30.727Z,0.00
2022-12-22T17:07:29.767Z,0.00
2022-12-22T17:08:29.727Z,0.00
2022-12-22T17:09:29.703Z,0.00
2022-12-22T17:10:30.686Z,0.00
2022-12-22T17:11:29.715Z,0.00
2022-12-22T17:12:29.663Z,0.00
2022-12-22T17:13:29.675Z,0.00
2022-12-22T17:14:29.642Z,0.00
2022-12-22T17:15:30.739Z,0.00
2022-12-22T17:16:34.712Z,0.00
2022-12-22T17:17:35.544Z,0.00
2022-12-22T17:18:30.607Z,0.00
2022-12-22T17:19:29.589Z,0.00
2022-12-22T17:20:29.636Z,0.00
2022-12-22T17:21:29.598Z,0.00
2022-12-22T17:22:29.546Z,0.00
2022-12-22T17:23:29.605Z,0.00
2022-12-22T17:24:29.524Z,0.00
2022-12-22T17:25:29.526Z,0.00
2022-12-22T17:26:29.501Z,0.00
2022-12-22T17:27:34.534Z,0.00
2022-12-22T17:28:29.506Z,0.00
2022-12-22T17:29:29.469Z,0.00
2022-12-22T17:30:29.466Z,0.00
2022-12-22T17:31:29.545Z,0.00
2022-12-22T17:32:29.435Z,0.00
2022-12-22T17:33:29.448Z,0.00
2022-12-22T17:34:29.443Z,0.00
2022-12-22T17:35:29.400Z,0.00
2022-12-22T17:36:29.391Z,0.00
2022-12-22T17:37:29.406Z,0.00
2022-12-22T17:38:34.435Z,0.00
2022-12-22T17:39:29.357Z,0.00
2022-12-22T17:40:29.484Z,0.00
2022-12-22T17:41:29.346Z,0.00
2022-12-22T17:42:29.357Z,0.00
2022-12-22T17:43:29.370Z,0.00
2022-12-22T17:44:29.519Z,0.00
2022-12-22T17:45:29.286Z,0.00
2022-12-22T17:46:29.364Z,0.00
2022-12-22T17:47:34.839Z,0.00
2022-12-22T17:48:30.306Z,0.00
2022-12-22T17:49:34.271Z,0.00
2022-12-22T17:50:29.264Z,0.00
2022-12-22T17:51:30.401Z,0.00
2022-12-22T17:52:29.218Z,0.00
2022-12-22T17:53:29.226Z,0.00
2022-12-22T17:54:29.204Z,0.00
2022-12-22T17:56:05.860Z,0.00
2022-12-22T17:56:30.183Z,0.00
2022-12-22T17:57:29.156Z,0.00
2022-12-22T17:58:29.161Z,0.00
2022-12-22T17:59:29.154Z,0.00
2022-12-22T18:00:34.171Z,0.00
2022-12-22T18:01:29.388Z,0.00
2022-12-22T18:02:29.296Z,0.00
2022-12-22T18:03:29.207Z,0.00
2022-12-22T18:04:29.069Z,0.00
2022-12-22T18:05:29.067Z,0.00